createdAt,value
2022-10-05T00:00:53.496Z,100475.44
2022-10-05T00:04:56.770Z,100485.59
2022-10-05T00:08:58.953Z,100470.41
2022-10-05T00:13:00.739Z,100475.25
2022-10-05T00:17:04.612Z,100467.56
2022-10-05T00:21:33.576Z,100459.41
2022-10-05T00:25:35.403Z,100459.53
2022-10-05T00:29:37.397Z,100466.97
2022-10-05T00:33:41.783Z,100465.13
2022-10-05T00:37:43.868Z,100454.56
2022-10-05T00:41:55.523Z,100456.75
2022-10-05T00:46:08.033Z,100450.00
2022-10-05T00:50:25.477Z,100447.81
2022-10-05T00:54:37.761Z,100451.88
2022-10-05T00:58:53.169Z,100464.19
2022-10-05T01:03:19.291Z,100459.22
2022-10-05T01:07:59.171Z,100465.00
2022-10-05T01:12:09.845Z,100467.47
2022-10-05T01:16:24.070Z,100443.78
2022-10-05T01:20:34.496Z,100450.94
2022-10-05T01:24:53.751Z,100449.28
2022-10-05T01:29:12.719Z,100451.72
2022-10-05T01:33:44.394Z,100452.91
2022-10-05T01:37:53.426Z,100431.78
2022-10-05T01:42:32.459Z,100429.16
2022-10-05T01:46:38.838Z,100428.72
2022-10-05T01:50:51.049Z,100423.44
2022-10-05T01:55:28.106Z,100433.13
2022-10-05T02:00:08.416Z,100415.88
2022-10-05T02:05:00.570Z,100409.47
2022-10-05T02:09:01.805Z,100418.56
2022-10-05T02:13:37.696Z,100410.00
2022-10-05T02:17:55.752Z,100438.34
2022-10-05T02:22:28.746Z,100445.28
2022-10-05T02:26:30.560Z,100424.19
2022-10-05T02:30:33.588Z,100422.13
2022-10-05T02:34:40.888Z,100424.94
2022-10-05T02:39:19.039Z,100422.91
2022-10-05T02:43:40.174Z,100428.47
2022-10-05T02:47:59.207Z,100428.28
2022-10-05T02:52:25.198Z,100425.63
2022-10-05T02:56:37.638Z,100419.69
2022-10-05T03:00:46.885Z,100410.66
2022-10-05T03:05:18.890Z,100410.34
2022-10-05T03:09:23.569Z,100399.72
2022-10-05T03:14:06.481Z,100407.03
2022-10-05T03:18:29.931Z,100402.97
2022-10-05T03:22:50.439Z,100395.66
2022-10-05T03:27:26.548Z,100389.53
2022-10-05T03:31:57.055Z,100406.28
2022-10-05T03:36:28.864Z,100415.69
2022-10-05T03:41:03.949Z,100420.53
2022-10-05T03:45:47.247Z,100434.91
2022-10-05T03:50:22.338Z,100427.84
2022-10-05T03:55:03.897Z,100430.31
2022-10-05T03:59:16.632Z,100421.38
2022-10-05T04:03:42.116Z,100428.94
2022-10-05T04:07:53.843Z,100426.44
2022-10-05T04:12:23.304Z,100411.06
2022-10-05T04:16:33.864Z,100422.84
2022-10-05T04:20:43.007Z,100433.03
2022-10-05T04:25:17.291Z,100423.91
2022-10-05T04:29:34.633Z,100428.34
2022-10-05T04:33:36.562Z,100422.31
2022-10-05T04:38:03.225Z,100430.81
2022-10-05T04:42:39.226Z,100430.38
2022-10-05T04:47:19.605Z,100437.88
2022-10-05T04:51:59.474Z,100439.66
2022-10-05T04:56:58.608Z,100452.59
2022-10-05T05:01:34.916Z,100447.81
2022-10-05T05:06:16.426Z,100447.94
2022-10-05T05:10:46.037Z,100438.97
2022-10-05T05:15:18.786Z,100456.06
2022-10-05T05:19:43.106Z,100461.16
2022-10-05T05:24:25.714Z,100453.81
2022-10-05T05:29:34.952Z,100449.78
2022-10-05T05:34:06.871Z,100461.91
2022-10-05T05:38:29.059Z,100463.63
2022-10-05T05:43:33.308Z,100458.31
2022-10-05T05:47:38.103Z,100455.78
2022-10-05T05:52:25.866Z,100466.97
2022-10-05T05:56:58.691Z,100464.69
2022-10-05T06:01:32.612Z,100478.66
2022-10-05T06:05:55.142Z,100473.41
2022-10-05T06:10:29.208Z,100467.09
2022-10-05T06:14:50.877Z,100455.91
2022-10-05T06:18:57.488Z,100453.75
2022-10-05T06:23:01.533Z,100432.88
2022-10-05T06:27:24.618Z,100432.53
2022-10-05T06:32:17.208Z,100440.25
2022-10-05T06:36:59.598Z,100419.06
2022-10-05T06:41:44.654Z,100396.06
2022-10-05T06:46:50.427Z,100398.44
2022-10-05T06:51:26.292Z,100397.13
2022-10-05T06:56:02.561Z,100387.03
2022-10-05T07:00:17.309Z,100376.66
2022-10-05T07:05:12.254Z,100372.88
2022-10-05T07:09:52.634Z,100373.75
2022-10-05T07:14:11.468Z,100388.94
2022-10-05T07:19:07.642Z,100366.91
2022-10-05T07:23:47.264Z,100365.25
2022-10-05T07:27:55.797Z,100352.88
2022-10-05T07:32:40.266Z,100346.97
2022-10-05T07:37:21.513Z,100345.25
2022-10-05T07:41:47.816Z,100337.44
2022-10-05T07:46:27.084Z,100345.88
2022-10-05T07:50:39.933Z,100356.22
2022-10-05T07:55:19.467Z,100322.69
2022-10-05T07:59:47.916Z,100336.63
2022-10-05T08:04:10.761Z,100342.75
2022-10-05T08:08:27.267Z,100333.44
2022-10-05T08:12:48.623Z,100334.81
2022-10-05T08:16:50.541Z,100343.31
2022-10-05T08:20:57.079Z,100332.47
2022-10-05T08:25:02.474Z,100333.81
2022-10-05T08:29:14.052Z,100320.22
2022-10-05T08:33:17.636Z,100317.81
2022-10-05T08:37:23.868Z,100298.09
2022-10-05T08:42:25.420Z,100309.06
2022-10-05T08:47:00.572Z,100309.69
2022-10-05T08:51:28.269Z,100311.78
2022-10-05T08:56:02.787Z,100304.66
2022-10-05T09:00:24.037Z,100286.09
2022-10-05T09:05:09.247Z,100299.91
2022-10-05T09:09:48.559Z,100292.34
2022-10-05T09:14:22.555Z,100275.94
2022-10-05T09:19:19.090Z,100275.84
2022-10-05T09:23:42.160Z,100281.06
2022-10-05T09:28:04.297Z,100275.22
2022-10-05T09:32:49.714Z,100278.84
2022-10-05T09:37:53.484Z,100264.75
2022-10-05T09:42:37.813Z,100271.06
2022-10-05T09:47:12.901Z,100261.75
2022-10-05T09:51:20.580Z,100265.34
2022-10-05T09:55:40.531Z,100257.47
2022-10-05T10:00:33.036Z,100245.00
2022-10-05T10:05:05.882Z,100244.78
2022-10-05T10:09:41.496Z,100247.50
2022-10-05T10:14:17.682Z,100254.63
2022-10-05T10:19:02.538Z,100242.44
2022-10-05T10:23:39.591Z,100230.31
2022-10-05T10:28:00.473Z,100232.66
2022-10-05T10:32:39.735Z,100217.69
2022-10-05T10:37:20.950Z,100221.00
2022-10-05T10:42:02.619Z,100225.69
2022-10-05T10:46:34.620Z,100210.88
2022-10-05T10:51:09.460Z,100214.91
2022-10-05T10:55:48.014Z,100215.16
2022-10-05T11:00:15.537Z,100207.28
2022-10-05T11:04:58.695Z,100207.50
2022-10-05T11:09:19.491Z,100195.50
2022-10-05T11:13:43.342Z,100192.97
2022-10-05T11:17:51.105Z,100196.63
2022-10-05T11:22:11.172Z,100201.16
2022-10-05T11:26:43.978Z,100194.03
2022-10-05T11:31:31.670Z,100182.59
2022-10-05T11:36:32.795Z,100175.03
2022-10-05T11:41:11.811Z,100183.81
2022-10-05T11:45:40.115Z,100169.28
2022-10-05T11:50:20.694Z,100160.88
2022-10-05T11:55:12.011Z,100160.84
2022-10-05T11:59:26.540Z,100150.97
2022-10-05T12:04:05.582Z,100159.22
2022-10-05T12:08:29.190Z,100148.56
2022-10-05T12:12:40.086Z,100149.22
2022-10-05T12:16:50.063Z,100137.84
2022-10-05T12:21:04.692Z,100131.00
2022-10-05T12:25:19.173Z,100141.88
2022-10-05T12:30:11.782Z,100137.75
2022-10-05T12:34:34.569Z,100136.41
2022-10-05T12:38:45.426Z,100122.47
2022-10-05T12:43:04.765Z,100128.06
2022-10-05T12:47:16.243Z,100117.41
2022-10-05T12:52:35.882Z,100126.78
2022-10-05T12:58:14.806Z,100122.47
2022-10-05T13:15:30.582Z,100100.75
2022-10-05T13:19:53.065Z,100117.84
2022-10-05T13:24:32.355Z,100111.22
2022-10-05T13:29:03.634Z,100104.66
2022-10-05T13:33:31.122Z,100100.84
2022-10-05T13:38:03.935Z,100096.91
2022-10-05T13:42:29.486Z,100092.50
2022-10-05T13:47:05.501Z,100085.69
2022-10-05T13:52:38.640Z,100097.41
2022-10-05T13:56:45.065Z,100092.44
2022-10-05T14:00:54.393Z,100082.53
2022-10-05T14:05:01.268Z,100084.81
2022-10-05T14:09:12.436Z,100090.75
2022-10-05T14:13:51.605Z,100098.84
2022-10-05T14:18:35.435Z,100092.19
2022-10-05T14:22:42.621Z,100085.53
2022-10-05T14:26:54.408Z,100083.81
2022-10-05T14:31:01.865Z,100080.59
2022-10-05T14:35:14.730Z,100087.50
2022-10-05T14:39:19.152Z,100077.00
2022-10-05T14:43:21.233Z,100096.16
2022-10-05T14:47:31.507Z,100083.69
2022-10-05T14:51:33.679Z,100086.84
2022-10-05T14:55:55.769Z,100092.66
2022-10-05T15:00:12.435Z,100095.97
2022-10-05T15:04:54.387Z,100093.66
2022-10-05T15:09:40.142Z,100089.47
2022-10-05T15:13:43.898Z,100083.78
2022-10-05T15:18:16.024Z,100075.25
2022-10-05T15:22:35.547Z,100087.34
2022-10-05T15:26:58.467Z,100088.44
2022-10-05T15:31:53.716Z,100084.41
2022-10-05T15:36:06.388Z,100087.75
2022-10-05T15:40:22.896Z,100085.72
2022-10-05T15:45:32.890Z,100078.00
2022-10-05T15:50:25.577Z,100085.78
2022-10-05T15:55:34.365Z,100084.97
2022-10-05T15:59:55.984Z,100073.94
2022-10-05T16:04:35.726Z,100099.00
2022-10-05T16:09:26.155Z,100097.53
2022-10-05T16:13:44.192Z,100091.41
2022-10-05T16:18:20.701Z,100095.00
2022-10-05T16:22:37.851Z,100096.25
2022-10-05T16:26:59.165Z,100093.13
2022-10-05T16:31:37.523Z,100105.59
2022-10-05T16:35:59.568Z,100103.59
2022-10-05T16:40:51.391Z,100114.84
2022-10-05T16:45:29.086Z,100122.13
2022-10-05T16:51:06.185Z,100139.63
2022-10-05T16:55:21.580Z,100141.59
2022-10-05T16:59:59.033Z,100133.78
2022-10-05T17:04:37.460Z,100137.88
2022-10-05T17:09:09.176Z,100147.59
2022-10-05T17:14:01.792Z,100142.50
2022-10-05T17:18:49.582Z,100140.72
2022-10-05T17:23:31.310Z,100137.69
2022-10-05T17:28:23.829Z,100120.94
2022-10-05T17:32:41.596Z,100128.81
2022-10-05T17:36:54.262Z,100137.59
2022-10-05T17:41:16.259Z,100133.50
2022-10-05T17:45:25.600Z,100139.94
2022-10-05T17:50:12.490Z,100138.25
2022-10-05T17:54:50.098Z,100124.63
2022-10-05T17:58:56.720Z,100137.03
2022-10-05T18:03:46.490Z,100143.78
2022-10-05T18:08:11.809Z,100150.69
2022-10-05T18:12:26.535Z,100149.97
2022-10-05T18:17:11.924Z,100144.78
2022-10-05T18:21:14.110Z,100150.25
2022-10-05T18:25:51.417Z,100151.47
2022-10-05T18:30:16.546Z,100157.00
2022-10-05T18:34:42.944Z,100151.44
2022-10-05T18:39:20.666Z,100167.44
2022-10-05T18:43:41.349Z,100167.41
2022-10-05T18:48:35.616Z,100173.75
2022-10-05T18:53:39.682Z,100177.16
2022-10-05T18:58:06.995Z,100164.56
2022-10-05T19:02:36.663Z,100184.31
2022-10-05T19:07:06.333Z,100190.38
2022-10-05T19:11:45.146Z,100194.50
2022-10-05T19:16:06.024Z,100197.31
2022-10-05T19:48:52.782Z,100232.16
2022-10-05T19:53:40.649Z,100222.16
2022-10-05T19:57:53.805Z,100239.59
2022-10-05T20:01:58.934Z,100238.44
2022-10-05T20:06:09.139Z,100239.25
2022-10-05T20:10:30.954Z,100242.03
2022-10-05T20:14:59.228Z,100250.41
2022-10-05T20:19:26.645Z,100240.19
2022-10-05T20:28:52.885Z,100264.06
2022-10-05T20:33:11.083Z,100263.25
2022-10-05T20:37:17.490Z,100271.94
2022-10-05T20:41:19.330Z,100276.88
2022-10-05T20:45:21.360Z,100271.44
2022-10-05T20:49:25.785Z,100279.81
2022-10-05T20:53:27.635Z,100279.31
2022-10-05T20:57:30.041Z,100292.63
2022-10-05T21:01:34.594Z,100298.91
2022-10-05T21:05:37.489Z,100291.81
2022-10-05T21:09:40.912Z,100298.97
2022-10-05T21:13:44.869Z,100303.06
2022-10-05T21:17:50.816Z,100316.69
2022-10-05T21:21:52.812Z,100315.84
2022-10-05T21:25:54.693Z,100311.63
2022-10-05T21:29:56.600Z,100302.13
2022-10-05T21:33:58.466Z,100309.75
2022-10-05T21:38:00.345Z,100305.13
2022-10-05T21:42:02.342Z,100288.09
2022-10-05T21:46:04.512Z,100303.16
2022-10-05T21:50:08.689Z,100296.88
2022-10-05T21:54:13.625Z,100295.53
2022-10-05T21:58:15.621Z,100292.53
2022-10-05T22:02:18.244Z,100285.69
2022-10-05T22:06:20.136Z,100281.28
2022-10-05T22:10:21.994Z,100295.13
2022-10-05T22:14:24.208Z,100296.16
2022-10-05T22:18:26.896Z,100289.94
2022-10-05T22:22:29.243Z,100297.75
2022-10-05T22:26:31.094Z,100297.78
2022-10-05T22:30:33.035Z,100312.81
2022-10-05T22:34:34.940Z,100295.59
2022-10-05T22:38:36.905Z,100306.34
2022-10-05T22:42:40.512Z,100300.75
2022-10-05T22:46:42.529Z,100315.91
2022-10-05T22:50:45.640Z,100293.97
2022-10-05T22:54:47.357Z,100316.19
2022-10-05T22:58:50.985Z,100302.44
2022-10-05T23:02:52.986Z,100318.66
2022-10-05T23:06:55.184Z,100321.41
2022-10-05T23:11:04.781Z,100341.19
2022-10-05T23:15:07.871Z,100343.81
2022-10-05T23:19:09.806Z,100326.09
2022-10-05T23:23:11.626Z,100351.69
2022-10-05T23:27:13.557Z,100356.03
2022-10-05T23:31:21.050Z,100376.81
2022-10-05T23:35:22.893Z,100368.34
2022-10-05T23:39:24.773Z,100387.84
2022-10-05T23:43:27.047Z,100385.94
2022-10-05T23:47:28.951Z,100391.59
2022-10-05T23:51:30.940Z,100406.91
2022-10-05T23:55:33.055Z,100423.56
2022-10-05T23:59:34.861Z,100404.63
